NCAR-RAP Real-Time Weather Data

Output produced by METARs form (22 June 2018  20:50 UTC)
found at http://weather.rap.ucar.edu/surface/
 
Conditions at: KLOU observed 22 June 2018  19:53 UTC
Temperature: 23.3°C (74°F)
Dewpoint: 21.7°C (71°F) [RH = 91%]
Pressure (altimeter): 29.67 inches Hg (1004.8 mb)
[Sea-level pressure: 1004.4 mb]
Winds: from the WSW (240 degrees) at 12 MPH (10 knots; 5.2 m/s)
Visibility: 10 or more miles (16+ km)
Ceiling: 4300 feet AGL
Clouds: few clouds at 1400 feet AGL
scattered clouds at 1900 feet AGL
broken clouds at 4300 feet AGL
Present Weather: no significant weather observed at this time
KLOU 221953Z 24010KT 10SM FEW014 SCT019 BKN043 23/22 A2967 RMK AO2 LTG DSNT SE RAE45 SLP044 P0006 T02330217